createdAt,value
2019-06-15T00:01:10.917Z,100858.99
2019-06-15T00:03:40.242Z,100855.73
2019-06-15T00:06:08.572Z,100849.16
2019-06-15T00:08:36.939Z,100851.27
2019-06-15T00:11:05.282Z,100850.02
2019-06-15T00:13:33.613Z,100854.29
2019-06-15T00:16:02.462Z,100856.85
2019-06-15T00:18:30.743Z,100861.77
2019-06-15T00:20:59.116Z,100874.73
2019-06-15T00:23:27.437Z,100896.93
2019-06-15T00:25:55.918Z,100907.22
2019-06-15T00:28:24.233Z,100921.05
2019-06-15T00:30:52.686Z,100925.41
2019-06-15T00:33:21.171Z,100934.52
2019-06-15T00:35:49.562Z,100944.95
2019-06-15T00:38:17.926Z,100939.88
2019-06-15T00:40:46.273Z,100941.47
2019-06-15T00:43:15.091Z,100936.97
2019-06-15T00:45:43.470Z,100936.38
2019-06-15T00:48:11.882Z,100937.98
2019-06-15T00:50:40.328Z,100936.82
2019-06-15T00:53:08.782Z,100934.86
2019-06-15T00:55:37.328Z,100922.84
2019-06-15T00:58:05.811Z,100923.66
2019-06-15T01:00:34.162Z,100923.58
2019-06-15T01:03:02.477Z,100929.23
2019-06-15T01:05:31.668Z,100926.36
2019-06-15T01:07:59.984Z,100918.94
2019-06-15T01:10:28.280Z,100914.39
2019-06-15T01:12:56.619Z,100921.05
2019-06-15T01:15:24.907Z,100914.77
2019-06-15T01:17:53.196Z,100911.42
2019-06-15T01:20:21.584Z,100897.89
2019-06-15T01:22:49.869Z,100885.73
2019-06-15T01:25:18.206Z,100890.72
2019-06-15T01:27:46.499Z,100894.03
2019-06-15T01:30:14.779Z,100892.44
2019-06-15T01:32:43.223Z,100891.23
2019-06-15T01:35:11.560Z,100879.20
2019-06-15T01:37:39.850Z,100870.09
2019-06-15T01:40:08.257Z,100858.38
2019-06-15T01:42:36.614Z,100858.97
2019-06-15T01:45:05.697Z,100853.39
2019-06-15T01:47:34.059Z,100843.55
2019-06-15T01:50:03.498Z,100827.80
2019-06-15T01:52:31.808Z,100816.31
2019-06-15T01:55:00.087Z,100816.97
2019-06-15T01:57:28.395Z,100814.08
2019-06-15T01:59:56.830Z,100807.94
2019-06-15T02:02:25.105Z,100795.08
2019-06-15T02:04:53.394Z,100788.88
2019-06-15T02:07:21.747Z,100781.92
2019-06-15T02:09:50.095Z,100783.23
2019-06-15T02:12:18.377Z,100768.41
2019-06-15T02:14:46.699Z,100765.09
2019-06-15T02:17:15.027Z,100770.00
2019-06-15T02:19:43.411Z,100771.00
2019-06-15T02:22:11.829Z,100762.20
2019-06-15T02:24:40.119Z,100746.72
2019-06-15T02:27:08.688Z,100740.08
2019-06-15T02:29:36.974Z,100744.19
2019-06-15T02:32:05.618Z,100736.73
2019-06-15T02:34:33.928Z,100729.86
2019-06-15T02:37:02.249Z,100733.13
2019-06-15T02:39:30.917Z,100734.23
2019-06-15T02:41:59.209Z,100729.75
2019-06-15T02:44:27.493Z,100724.03
2019-06-15T02:46:56.404Z,100728.74
2019-06-15T02:49:24.682Z,100711.17
2019-06-15T02:51:53.055Z,100710.52
2019-06-15T02:54:21.369Z,100713.55
2019-06-15T02:56:49.806Z,100702.19
2019-06-15T02:59:18.130Z,100695.28
2019-06-15T03:01:46.499Z,100690.94
2019-06-15T03:04:15.784Z,100690.12
2019-06-15T03:06:44.143Z,100692.83
2019-06-15T03:09:12.439Z,100687.41
2019-06-15T03:11:40.766Z,100656.93
2019-06-15T03:14:09.220Z,100642.12
2019-06-15T03:16:37.517Z,100645.17
2019-06-15T03:19:05.804Z,100661.79
2019-06-15T03:21:34.126Z,100655.86
2019-06-15T03:24:02.538Z,100656.64
2019-06-15T03:26:31.180Z,100661.57
2019-06-15T03:28:59.469Z,100650.37
2019-06-15T03:31:27.763Z,100631.16
2019-06-15T03:33:56.204Z,100627.63
2019-06-15T03:36:24.488Z,100628.41
2019-06-15T03:38:53.562Z,100628.19
2019-06-15T03:41:21.982Z,100642.15
2019-06-15T03:43:50.275Z,100650.44
2019-06-15T03:46:18.582Z,100673.77
2019-06-15T03:48:46.937Z,100698.05
2019-06-15T03:51:15.225Z,100702.80
2019-06-15T03:53:43.538Z,100702.16
2019-06-15T03:56:21.011Z,100710.34
2019-06-15T03:58:42.042Z,100724.70
2019-06-15T04:01:13.732Z,100746.52
2019-06-15T04:03:42.022Z,100730.47
2019-06-15T04:06:10.322Z,100726.35
2019-06-15T04:08:38.669Z,100732.43
2019-06-15T04:11:06.979Z,100740.66
2019-06-15T04:13:35.276Z,100738.56
2019-06-15T04:16:03.590Z,100734.08
2019-06-15T04:18:31.922Z,100737.05
2019-06-15T04:21:00.250Z,100736.97
2019-06-15T04:23:28.547Z,100720.30
2019-06-15T04:25:56.973Z,100735.54
2019-06-15T04:28:25.275Z,100722.91
2019-06-15T04:30:53.568Z,100712.43
2019-06-15T04:33:21.891Z,100696.66
2019-06-15T04:35:50.227Z,100679.55
2019-06-15T04:38:18.573Z,100659.03
2019-06-15T04:40:47.536Z,100630.21
2019-06-15T04:43:15.928Z,100618.38
2019-06-15T04:45:44.236Z,100635.86
2019-06-15T04:48:12.665Z,100618.31
2019-06-15T04:50:40.956Z,100608.30
2019-06-15T04:53:09.366Z,100605.74
2019-06-15T04:55:37.668Z,100595.99
2019-06-15T04:58:05.967Z,100592.69
2019-06-15T05:00:34.698Z,100588.99
2019-06-15T05:03:03.069Z,100582.58
2019-06-15T05:05:31.443Z,100568.49
2019-06-15T05:07:59.940Z,100552.44
2019-06-15T05:10:28.237Z,100551.37
2019-06-15T05:12:57.439Z,100551.63
2019-06-15T05:15:25.752Z,100551.07
2019-06-15T05:17:54.172Z,100547.37
2019-06-15T05:20:22.493Z,100530.97
2019-06-15T05:22:50.793Z,100524.74
2019-06-15T05:25:19.108Z,100530.75
2019-06-15T05:27:47.431Z,100538.23
2019-06-15T05:30:15.770Z,100551.45
2019-06-15T05:32:44.178Z,100541.58
2019-06-15T05:35:12.523Z,100544.17
2019-06-15T05:37:40.844Z,100529.71
2019-06-15T05:40:09.137Z,100525.45
2019-06-15T05:42:37.581Z,100526.30
2019-06-15T05:45:08.823Z,100531.64
2019-06-15T05:47:37.119Z,100532.67
2019-06-15T05:50:05.843Z,100538.01
2019-06-15T05:52:34.305Z,100539.53
2019-06-15T05:55:02.593Z,100538.34
2019-06-15T05:57:30.912Z,100542.91
2019-06-15T05:59:59.524Z,100548.63
2019-06-15T06:02:27.815Z,100550.00
2019-06-15T06:04:56.235Z,100547.44
2019-06-15T06:07:24.707Z,100549.77
2019-06-15T06:09:52.999Z,100568.03
2019-06-15T06:12:21.990Z,100588.43
2019-06-15T06:14:50.358Z,100614.30
2019-06-15T06:17:18.663Z,100646.45
2019-06-15T06:19:47.047Z,100659.39
2019-06-15T06:22:15.442Z,100663.58
2019-06-15T06:24:43.775Z,100663.16
2019-06-15T06:27:12.074Z,100650.00
2019-06-15T06:29:40.749Z,100630.56
2019-06-15T06:32:09.044Z,100622.33
2019-06-15T06:34:37.343Z,100623.00
2019-06-15T06:37:05.662Z,100632.45
2019-06-15T06:39:33.944Z,100627.45
2019-06-15T06:42:02.289Z,100631.51
2019-06-15T06:44:30.589Z,100650.20
2019-06-15T06:46:58.875Z,100664.89
2019-06-15T06:49:27.240Z,100674.49
2019-06-15T06:51:55.525Z,100679.27
2019-06-15T06:54:23.830Z,100653.41
2019-06-15T06:56:52.170Z,100652.83
2019-06-15T06:59:20.492Z,100664.68
2019-06-15T07:01:48.842Z,100672.10
2019-06-15T07:04:17.132Z,100681.52
2019-06-15T07:06:45.422Z,100683.36
2019-06-15T07:09:13.732Z,100688.07
2019-06-15T07:11:42.057Z,100689.44
2019-06-15T07:14:10.486Z,100680.28
2019-06-15T07:16:38.770Z,100678.69
2019-06-15T07:19:07.113Z,100665.75
2019-06-15T07:21:35.408Z,100659.25
2019-06-15T07:24:03.869Z,100667.48
2019-06-15T07:26:33.492Z,100683.73
2019-06-15T07:29:01.798Z,100704.98
2019-06-15T07:31:30.898Z,100714.79
2019-06-15T07:33:59.316Z,100723.39
2019-06-15T07:36:27.614Z,100724.53
2019-06-15T07:38:55.917Z,100714.14
2019-06-15T07:41:24.229Z,100710.95
2019-06-15T07:43:52.515Z,100708.94
2019-06-15T07:46:20.837Z,100711.13
2019-06-15T07:48:49.153Z,100712.13
2019-06-15T07:51:17.479Z,100707.65
2019-06-15T07:53:45.843Z,100697.09
2019-06-15T07:56:14.161Z,100699.05
2019-06-15T07:58:42.555Z,100701.02
2019-06-15T08:01:10.880Z,100708.94
2019-06-15T08:03:39.193Z,100709.16
2019-06-15T08:06:07.493Z,100699.78
2019-06-15T08:08:35.995Z,100704.68
2019-06-15T08:11:04.396Z,100694.48
2019-06-15T08:13:32.679Z,100691.33
2019-06-15T08:16:01.102Z,100697.18
2019-06-15T08:18:29.408Z,100712.41
2019-06-15T08:20:57.810Z,100713.05
2019-06-15T08:23:26.157Z,100729.30
2019-06-15T08:25:54.451Z,100731.11
2019-06-15T08:28:22.755Z,100736.52
2019-06-15T08:30:51.076Z,100735.01
2019-06-15T08:33:19.363Z,100735.96
2019-06-15T08:35:47.679Z,100741.09
2019-06-15T08:38:15.994Z,100738.62
2019-06-15T08:40:44.289Z,100733.55
2019-06-15T08:43:12.743Z,100735.29
2019-06-15T08:45:41.032Z,100730.16
2019-06-15T08:48:09.361Z,100720.47
2019-06-15T08:50:37.677Z,100722.80
2019-06-15T08:53:05.995Z,100722.80
2019-06-15T08:55:34.328Z,100728.93
2019-06-15T08:58:02.622Z,100732.41
2019-06-15T09:00:30.918Z,100738.45
2019-06-15T09:02:59.271Z,100743.88
2019-06-15T09:05:27.587Z,100742.41
2019-06-15T09:07:55.892Z,100744.15
2019-06-15T09:10:24.331Z,100739.67
2019-06-15T09:12:52.631Z,100742.19
2019-06-15T09:15:39.327Z,100746.98
2019-06-15T09:18:07.628Z,100742.56
2019-06-15T09:20:35.951Z,100741.36
2019-06-15T09:23:04.251Z,100741.36
2019-06-15T09:25:32.604Z,100741.19
2019-06-15T09:28:00.891Z,100743.93
2019-06-15T09:30:29.235Z,100743.15
2019-06-15T09:32:57.536Z,100739.67
2019-06-15T09:35:25.825Z,100740.36
2019-06-15T09:37:54.552Z,100736.74
2019-06-15T09:40:22.840Z,100733.36
2019-06-15T09:42:51.154Z,100730.25
2019-06-15T09:45:19.475Z,100724.48
2019-06-15T09:47:47.751Z,100730.47
2019-06-15T09:50:16.042Z,100735.37
2019-06-15T09:52:44.558Z,100738.20
2019-06-15T09:55:12.927Z,100746.94
2019-06-15T09:57:41.231Z,100752.37
2019-06-15T10:00:09.684Z,100758.81
2019-06-15T10:02:38.347Z,100760.09
2019-06-15T10:05:06.758Z,100765.30
2019-06-15T10:07:35.210Z,100761.48
2019-06-15T10:10:07.702Z,100771.52
2019-06-15T10:12:36.012Z,100769.21
2019-06-15T10:15:07.828Z,100765.95
2019-06-15T10:17:36.140Z,100770.34
2019-06-15T10:20:07.409Z,100777.52
2019-06-15T10:22:35.701Z,100776.81
2019-06-15T10:25:05.216Z,100778.63
2019-06-15T10:27:33.605Z,100779.58
2019-06-15T10:30:01.901Z,100785.97
2019-06-15T10:32:30.185Z,100786.50
2019-06-15T10:34:58.493Z,100797.83
2019-06-15T10:37:26.821Z,100806.34
2019-06-15T10:39:55.137Z,100796.80
2019-06-15T10:42:23.475Z,100800.55
2019-06-15T10:44:52.158Z,100804.38
2019-06-15T10:47:20.445Z,100804.72
2019-06-15T10:49:48.733Z,100805.27
2019-06-15T10:52:17.092Z,100805.05
2019-06-15T10:54:45.372Z,100805.32
2019-06-15T10:57:13.666Z,100809.87
2019-06-15T10:59:56.162Z,100806.20
2019-06-15T11:02:12.073Z,100808.35
2019-06-15T11:04:40.369Z,100809.95
2019-06-15T11:07:08.680Z,100814.28
2019-06-15T11:09:36.963Z,100812.55
2019-06-15T11:12:05.294Z,100809.38
2019-06-15T11:14:33.604Z,100810.98
2019-06-15T11:17:02.569Z,100812.67
2019-06-15T11:19:30.931Z,100806.85
2019-06-15T11:21:59.198Z,100804.75
2019-06-15T11:24:27.482Z,100808.11
2019-06-15T11:26:55.863Z,100796.67
2019-06-15T11:29:24.153Z,100803.16
2019-06-15T11:31:52.457Z,100808.43
2019-06-15T11:34:20.742Z,100804.64
2019-06-15T11:36:49.174Z,100809.56
2019-06-15T11:39:17.545Z,100825.06
2019-06-15T11:41:45.844Z,100838.16
2019-06-15T11:44:14.159Z,100834.11
2019-06-15T11:46:42.465Z,100828.31
2019-06-15T11:49:10.783Z,100828.45
2019-06-15T11:51:39.096Z,100812.63
2019-06-15T11:54:07.395Z,100821.74
2019-06-15T11:56:35.716Z,100824.16
2019-06-15T11:59:04.039Z,100836.95
2019-06-15T12:01:32.393Z,100842.45
2019-06-15T12:04:00.681Z,100845.27
2019-06-15T12:06:29.114Z,100843.98
2019-06-15T12:08:57.404Z,100856.06
2019-06-15T12:11:25.760Z,100854.37
2019-06-15T12:13:54.081Z,100865.02
2019-06-15T12:16:22.514Z,100871.99
2019-06-15T12:18:50.848Z,100863.38
2019-06-15T12:21:19.126Z,100865.91
2019-06-15T12:23:47.432Z,100880.30
2019-06-15T12:26:15.757Z,100888.63
2019-06-15T12:28:44.040Z,100892.58
2019-06-15T12:31:12.515Z,100902.77
2019-06-15T12:33:40.854Z,100904.45
2019-06-15T12:36:18.880Z,100911.37
2019-06-15T12:38:40.127Z,100911.47
2019-06-15T12:41:08.519Z,100928.34
2019-06-15T12:43:37.126Z,100947.16
2019-06-15T12:46:05.439Z,100946.82
2019-06-15T12:48:33.742Z,100942.13
2019-06-15T12:51:02.050Z,100943.33
2019-06-15T12:53:30.448Z,100941.94
2019-06-15T12:55:59.433Z,100946.11
2019-06-15T12:58:29.291Z,100966.76
2019-06-15T13:01:02.991Z,100968.25
2019-06-15T13:03:27.652Z,100972.86
2019-06-15T13:05:56.028Z,100971.08
2019-06-15T13:08:24.346Z,100971.84
2019-06-15T13:10:52.750Z,100993.09
2019-06-15T13:13:21.037Z,100993.00
2019-06-15T13:15:49.327Z,100992.25
2019-06-15T13:18:17.741Z,100990.18
2019-06-15T13:20:46.024Z,100999.89
2019-06-15T13:23:15.093Z,101009.52
2019-06-15T13:25:43.514Z,101016.94
2019-06-15T13:28:11.849Z,101015.94
2019-06-15T13:30:40.209Z,101024.53
2019-06-15T13:33:08.607Z,101026.57
2019-06-15T13:35:36.914Z,101034.91
2019-06-15T13:38:05.204Z,101040.38
2019-06-15T13:40:33.582Z,101036.10
2019-06-15T13:43:01.938Z,101044.81
2019-06-15T13:45:30.249Z,101052.32
2019-06-15T13:47:58.562Z,101058.00
2019-06-15T13:50:26.982Z,101066.83
2019-06-15T13:52:55.268Z,101065.89
2019-06-15T13:55:23.608Z,101070.95
2019-06-15T13:57:52.023Z,101071.55
2019-06-15T14:00:20.383Z,101075.73
2019-06-15T14:02:48.747Z,101075.14
2019-06-15T14:05:17.066Z,101083.35
2019-06-15T14:07:45.550Z,101092.78
2019-06-15T14:10:13.834Z,101090.16
2019-06-15T14:12:42.160Z,101099.98
2019-06-15T14:15:10.646Z,101102.44
2019-06-15T14:17:39.925Z,101106.89
2019-06-15T14:20:09.100Z,101111.02
2019-06-15T14:22:37.953Z,101107.41
2019-06-15T14:25:07.487Z,101112.98
2019-06-15T14:27:35.939Z,101114.91
2019-06-15T14:30:08.868Z,101108.11
2019-06-15T14:32:37.150Z,101104.44
2019-06-15T14:35:07.503Z,101111.39
2019-06-15T14:37:35.819Z,101103.64
2019-06-15T14:40:05.122Z,101104.73
2019-06-15T14:42:33.483Z,101114.08
2019-06-15T14:45:01.903Z,101113.34
2019-06-15T14:47:30.224Z,101109.05
2019-06-15T14:49:58.539Z,101114.41
2019-06-15T14:52:26.880Z,101114.14
2019-06-15T14:54:56.640Z,101120.61
2019-06-15T14:57:27.096Z,101125.03
2019-06-15T15:00:03.951Z,101122.59
2019-06-15T15:02:26.252Z,101127.01
2019-06-15T15:04:56.463Z,101141.35
2019-06-15T15:07:26.386Z,101144.45
2019-06-15T15:09:56.740Z,101130.98
2019-06-15T15:12:26.619Z,101146.44
2019-06-15T15:14:56.532Z,101150.30
2019-06-15T15:17:26.913Z,101146.31
2019-06-15T15:19:57.366Z,101147.45
2019-06-15T15:22:26.799Z,101149.87
2019-06-15T15:24:56.142Z,101156.09
2019-06-15T15:27:27.184Z,101142.92
2019-06-15T15:29:56.910Z,101148.64
2019-06-15T15:32:30.570Z,101153.05
2019-06-15T15:34:56.050Z,101153.14
2019-06-15T15:37:26.833Z,101151.25
2019-06-15T15:39:56.603Z,101158.87
2019-06-15T15:42:26.664Z,101156.30
2019-06-15T15:44:56.568Z,101152.25
2019-06-15T15:47:27.481Z,101150.09
2019-06-15T15:49:57.629Z,101146.34
2019-06-15T15:52:26.974Z,101150.38
2019-06-15T15:54:56.491Z,101154.67
2019-06-15T15:57:26.668Z,101161.25
2019-06-15T15:59:56.313Z,101158.75
2019-06-15T16:02:35.469Z,101162.11
2019-06-15T16:04:57.477Z,101160.44
2019-06-15T16:07:27.876Z,101165.88
2019-06-15T16:09:55.425Z,101167.03
2019-06-15T16:12:23.696Z,101160.33
2019-06-15T16:14:52.034Z,101165.20
2019-06-15T16:17:20.415Z,101169.19
2019-06-15T16:19:48.727Z,101175.58
2019-06-15T16:22:17.046Z,101174.82
2019-06-15T16:24:47.720Z,101182.39
2019-06-15T16:27:15.983Z,101174.06
2019-06-15T16:29:47.011Z,101178.69
2019-06-15T16:32:16.131Z,101187.67
2019-06-15T16:34:47.286Z,101176.30
2019-06-15T16:37:16.885Z,101181.48
2019-06-15T16:39:46.699Z,101183.73
2019-06-15T16:42:14.756Z,101179.16
2019-06-15T16:44:43.068Z,101184.05
2019-06-15T16:47:11.445Z,101191.55
2019-06-15T16:49:39.724Z,101201.00
2019-06-15T16:52:08.130Z,101202.72
2019-06-15T16:54:36.762Z,101199.45
2019-06-15T16:57:05.024Z,101201.72
2019-06-15T16:59:33.325Z,101209.19
2019-06-15T17:02:01.673Z,101211.77
2019-06-15T17:04:30.011Z,101218.75
2019-06-15T17:06:58.313Z,101217.25
2019-06-15T17:09:27.577Z,101216.63
2019-06-15T17:11:57.095Z,101214.59
2019-06-15T17:14:27.059Z,101208.95
2019-06-15T17:16:56.717Z,101214.31
2019-06-15T17:19:26.907Z,101213.37
2019-06-15T17:21:58.194Z,101211.45
2019-06-15T17:24:26.576Z,101214.81
2019-06-15T17:26:57.054Z,101216.97
2019-06-15T17:29:25.455Z,101219.55
2019-06-15T17:31:54.048Z,101225.67
2019-06-15T17:34:22.394Z,101226.70
2019-06-15T17:36:51.174Z,101224.30
2019-06-15T17:39:19.591Z,101219.22
2019-06-15T17:41:47.937Z,101227.23
2019-06-15T17:44:16.853Z,101238.20
2019-06-15T17:46:46.424Z,101240.48
2019-06-15T17:49:17.666Z,101236.42
2019-06-15T17:51:46.173Z,101231.42
2019-06-15T17:54:16.875Z,101243.31
2019-06-15T17:56:46.214Z,101243.53
2019-06-15T17:59:16.275Z,101253.44
2019-06-15T18:01:46.907Z,101252.44
2019-06-15T18:04:16.571Z,101250.58
2019-06-15T18:06:46.879Z,101249.72
2019-06-15T18:09:17.005Z,101252.12
2019-06-15T18:11:46.454Z,101249.49
2019-06-15T18:14:17.496Z,101251.02
2019-06-15T18:16:46.969Z,101241.13
2019-06-15T18:19:17.086Z,101249.42
2019-06-15T18:21:46.704Z,101256.09
2019-06-15T18:24:16.349Z,101256.38
2019-06-15T18:26:47.171Z,101251.52
2019-06-15T18:29:16.796Z,101252.76
2019-06-15T18:31:44.937Z,101251.60
2019-06-15T18:34:16.776Z,101250.70
2019-06-15T18:36:44.254Z,101258.33
2019-06-15T18:39:12.707Z,101252.09
2019-06-15T18:41:40.982Z,101253.68
2019-06-15T18:44:09.296Z,101257.09
2019-06-15T18:46:37.561Z,101260.31
2019-06-15T18:49:06.717Z,101267.15
2019-06-15T18:51:35.459Z,101268.30
2019-06-15T18:54:03.745Z,101268.35
2019-06-15T18:56:32.386Z,101263.13
2019-06-15T18:59:00.726Z,101264.08
2019-06-15T19:01:29.026Z,101267.11
2019-06-15T19:03:57.313Z,101271.00
2019-06-15T19:06:26.437Z,101269.91
2019-06-15T19:08:57.297Z,101269.54
2019-06-15T19:11:27.201Z,101275.86
2019-06-15T19:13:56.347Z,101273.80
2019-06-15T19:16:24.711Z,101276.19
2019-06-15T19:18:53.021Z,101281.56
2019-06-15T19:21:21.536Z,101289.55
2019-06-15T19:23:49.880Z,101287.25
2019-06-15T19:26:18.273Z,101292.39
2019-06-15T19:28:46.686Z,101298.77
2019-06-15T19:31:15.043Z,101302.99
2019-06-15T19:33:43.456Z,101303.22
2019-06-15T19:36:11.877Z,101296.89
2019-06-15T19:38:40.258Z,101300.80
2019-06-15T19:41:08.593Z,101308.41
2019-06-15T19:43:36.892Z,101314.45
2019-06-15T19:46:06.780Z,101318.30
2019-06-15T19:48:36.858Z,101324.30
2019-06-15T19:51:05.434Z,101319.06
2019-06-15T19:53:36.380Z,101326.86
2019-06-15T19:56:06.806Z,101337.22
2019-06-15T19:58:34.700Z,101331.75
2019-06-15T20:01:03.197Z,101333.48
2019-06-15T20:03:31.525Z,101334.99
2019-06-15T20:05:59.921Z,101324.70
2019-06-15T20:08:28.244Z,101323.56
2019-06-15T20:10:56.774Z,101323.47
2019-06-15T20:13:25.342Z,101331.66
2019-06-15T20:15:53.673Z,101332.14
2019-06-15T20:18:22.108Z,101325.88
2019-06-15T20:20:50.435Z,101328.30
2019-06-15T20:23:18.791Z,101330.30
2019-06-15T20:25:47.312Z,101341.31
2019-06-15T20:28:16.357Z,101333.48
2019-06-15T20:30:46.175Z,101337.63
2019-06-15T20:33:16.652Z,101336.06
2019-06-15T20:35:47.205Z,101334.48
2019-06-15T20:38:16.113Z,101337.16
2019-06-15T20:40:47.328Z,101342.01
2019-06-15T20:43:17.127Z,101339.13
2019-06-15T20:45:46.899Z,101335.17
2019-06-15T20:48:15.427Z,101336.67
2019-06-15T20:50:43.877Z,101341.03
2019-06-15T20:53:12.150Z,101344.25
2019-06-15T20:55:40.443Z,101341.73
2019-06-15T20:58:08.751Z,101331.57
2019-06-15T21:00:37.156Z,101332.16
2019-06-15T21:03:06.837Z,101331.60
2019-06-15T21:05:41.035Z,101332.77
2019-06-15T21:08:06.900Z,101330.02
2019-06-15T21:10:37.246Z,101333.89
2019-06-15T21:13:05.506Z,101339.41
2019-06-15T21:15:37.110Z,101334.23
2019-06-15T21:18:06.798Z,101334.56
2019-06-15T21:20:36.332Z,101323.38
2019-06-15T21:23:06.605Z,101326.34
2019-06-15T21:25:35.157Z,101326.80
2019-06-15T21:28:06.478Z,101320.27
2019-06-15T21:30:36.642Z,101313.98
2019-06-15T21:33:06.817Z,101318.55
2019-06-15T21:35:46.121Z,101315.69
2019-06-15T21:38:06.347Z,101308.27
2019-06-15T21:40:36.624Z,101298.77
2019-06-15T21:43:04.106Z,101302.20
2019-06-15T21:45:32.394Z,101294.44
2019-06-15T21:48:00.772Z,101303.31
2019-06-15T21:50:29.260Z,101305.72
2019-06-15T21:52:57.543Z,101308.44
2019-06-15T21:55:26.840Z,101314.23
2019-06-15T21:57:56.458Z,101315.65
2019-06-15T22:00:47.570Z,101315.65
2019-06-15T22:03:16.877Z,101309.66
2019-06-15T22:05:47.279Z,101309.76
2019-06-15T22:08:17.028Z,101323.52
2019-06-15T22:10:44.907Z,101335.34
2019-06-15T22:13:15.843Z,101332.11
2019-06-15T22:15:43.314Z,101333.67
2019-06-15T22:18:11.626Z,101342.87
2019-06-15T22:20:39.927Z,101347.98
2019-06-15T22:23:08.350Z,101364.27
2019-06-15T22:25:36.634Z,101373.84
2019-06-15T22:28:06.884Z,101377.83
2019-06-15T22:30:36.660Z,101370.26
2019-06-15T22:33:06.801Z,101388.38
2019-06-15T22:35:36.380Z,101391.45
2019-06-15T22:38:07.121Z,101408.75
2019-06-15T22:40:36.336Z,101409.42
2019-06-15T22:43:06.875Z,101407.91
2019-06-15T22:45:34.861Z,101399.33
2019-06-15T22:48:03.190Z,101400.64
2019-06-15T22:50:31.529Z,101396.63
2019-06-15T22:52:59.881Z,101392.91
2019-06-15T22:55:28.172Z,101390.84
2019-06-15T22:57:56.732Z,101399.23
2019-06-15T23:00:26.559Z,101392.58
2019-06-15T23:02:56.588Z,101390.26
2019-06-15T23:05:26.329Z,101387.86
2019-06-15T23:07:55.965Z,101393.41
2019-06-15T23:10:24.572Z,101396.91
2019-06-15T23:12:53.062Z,101394.89
2019-06-15T23:15:21.375Z,101396.46
2019-06-15T23:17:49.617Z,101401.52
2019-06-15T23:20:17.917Z,101413.28
2019-06-15T23:22:46.897Z,101424.63
2019-06-15T23:25:16.836Z,101434.94
2019-06-15T23:27:46.917Z,101437.75
2019-06-15T23:30:16.152Z,101445.45
2019-06-15T23:32:46.873Z,101447.94
2019-06-15T23:35:16.798Z,101453.81
2019-06-15T23:37:46.474Z,101452.61
2019-06-15T23:40:29.291Z,101453.02
2019-06-15T23:42:57.575Z,101462.66
2019-06-15T23:45:26.848Z,101464.75
2019-06-15T23:47:57.444Z,101461.06
2019-06-15T23:50:26.426Z,101470.23
2019-06-15T23:52:55.068Z,101470.61
2019-06-15T23:55:23.358Z,101476.47
2019-06-15T23:57:51.640Z,101479.53
